Time;durP1;ratioP1;P1;durP2;ratioP2;P2;SDS_P1;SDS_P2;PMS_P1;PMS_P2;Temp;Humidity;BMP_temperature;BMP_pressure;BME280_temperature;BME280_humidity;BME280_pressure;Samples;Min_cycle;Max_cycle;Signal;HPM_P1;HPM_P2
2021/12/15 00:00:44;;;;;;;;;42.25;36.00;;;;;;;;5077993;28;45301;-70
2021/12/15 00:03:09;;;;;;;;;48.00;39.00;;;;;;;;5078030;28;45319;-69
2021/12/15 00:05:34;;;;;;;;;47.75;38.75;;;;;;;;5079906;27;45584;-71
2021/12/15 00:08:01;;;;;;;;;45.75;38.25;;;;;;;;5083342;27;45383;-70
2021/12/15 00:10:27;;;;;;;;;45.50;36.75;;;;;;;;5078576;28;45353;-67
2021/12/15 00:12:53;;;;;;;;;43.25;37.00;;;;;;;;5059393;28;47119;-69
2021/12/15 00:15:19;;;;;;;;;48.50;39.00;;;;;;;;5077806;28;45461;-70
2021/12/15 00:17:45;;;;;;;;;46.75;38.00;;;;;;;;5077577;28;45323;-68
2021/12/15 00:20:12;;;;;;;;;44.75;36.50;;;;;;;;5071385;27;45609;-69
2021/12/15 00:22:38;;;;;;;;;44.00;35.25;;;;;;;;5077601;27;47264;-69
2021/12/15 00:25:05;;;;;;;;;49.50;36.25;;;;;;;;5077660;28;45158;-68
2021/12/15 00:27:30;;;;;;;;;48.00;38.50;;;;;;;;5077523;28;45382;-69
2021/12/15 00:29:55;;;;;;;;;45.00;38.50;;;;;;;;5077886;28;45468;-70
2021/12/15 00:32:21;;;;;;;;;45.25;38.50;;;;;;;;5077661;28;46175;-69
2021/12/15 00:34:48;;;;;;;;;43.00;37.75;;;;;;;;5077792;28;45454;-68
2021/12/15 00:37:13;;;;;;;;;49.50;36.50;;;;;;;;5078692;27;45540;-68
2021/12/15 00:39:38;;;;;;;;;46.50;37.75;;;;;;;;5077665;28;45453;-70
2021/12/15 00:42:04;;;;;;;;;47.75;37.00;;;;;;;;5077171;28;46231;-68
2021/12/15 00:44:29;;;;;;;;;40.25;34.00;;;;;;;;5077019;28;45451;-69
2021/12/15 00:46:55;;;;;;;;;40.75;31.25;;;;;;;;5077632;28;45375;-69
2021/12/15 00:49:21;;;;;;;;;39.50;33.25;;;;;;;;5079053;27;45462;-69
2021/12/15 00:51:47;;;;;;;;;37.75;33.00;;;;;;;;5061960;28;46502;-69
2021/12/15 00:54:12;;;;;;;;;44.50;35.25;;;;;;;;5077114;28;45473;-70
2021/12/15 00:56:37;;;;;;;;;36.25;31.25;;;;;;;;5077213;28;45449;-70
2021/12/15 00:59:04;;;;;;;;;48.25;37.00;;;;;;;;5077122;28;45285;-68
2021/12/15 01:01:30;;;;;;;;;35.25;32.00;;;;;;;;5077718;28;46306;-70
2021/12/15 01:03:55;;;;;;;;;43.75;35.25;;;;;;;;5076575;28;45559;-68
2021/12/15 01:06:21;;;;;;;;;36.50;31.25;;;;;;;;5077898;27;45619;-68
2021/12/15 01:08:52;;;;;;;;;41.25;32.50;;;;;;;;5076814;28;45540;-67
2021/12/15 01:11:33;;;;;;;;;38.25;32.75;;;;;;;;5076185;28;47059;-69
2021/12/15 01:22:17;;;;;;;;;31.00;29.50;;;;;;;;5075973;27;45514;-69
2021/12/15 01:24:43;;;;;;;;;36.25;34.25;;;;;;;;5075762;27;45531;-69
2021/12/15 01:27:08;;;;;;;;;34.50;32.00;;;;;;;;5076623;28;45363;-69
2021/12/15 01:29:33;;;;;;;;;36.75;32.00;;;;;;;;5077158;28;45365;-70
2021/12/15 01:31:58;;;;;;;;;35.25;31.00;;;;;;;;5076223;28;46915;-68
2021/12/15 01:34:24;;;;;;;;;33.25;30.00;;;;;;;;5076740;27;46925;-69
2021/12/15 01:36:49;;;;;;;;;42.25;32.50;;;;;;;;5076715;28;45360;-69
2021/12/15 01:39:15;;;;;;;;;36.00;30.50;;;;;;;;5076808;28;45516;-68
2021/12/15 01:41:40;;;;;;;;;39.75;32.25;;;;;;;;5076464;28;45339;-67
2021/12/15 01:46:54;;;;;;;;;37.25;32.25;;;;;;;;5076586;28;45404;-70
2021/12/15 01:49:25;;;;;;;;;37.00;33.50;;;;;;;;5076545;28;45375;-67
2021/12/15 01:51:50;;;;;;;;;30.50;27.75;;;;;;;;5059269;28;47709;-68
2021/12/15 01:54:17;;;;;;;;;31.75;27.25;;;;;;;;5076565;28;45385;-68
2021/12/15 01:56:42;;;;;;;;;35.25;31.00;;;;;;;;5076565;28;45606;-68
2021/12/15 01:59:08;;;;;;;;;43.25;32.25;;;;;;;;5076500;28;45467;-68
2021/12/15 02:01:33;;;;;;;;;26.50;25.50;;;;;;;;5076580;28;47272;-68
2021/12/15 02:03:59;;;;;;;;;40.00;34.00;;;;;;;;5075512;27;45514;-69
2021/12/15 02:06:25;;;;;;;;;36.00;32.00;;;;;;;;5076545;28;45474;-68
2021/12/15 02:08:51;;;;;;;;;40.00;33.75;;;;;;;;5075988;28;45589;-68
2021/12/15 02:11:17;;;;;;;;;31.50;31.25;;;;;;;;5076513;28;47046;-69
2021/12/15 02:13:44;;;;;;;;;41.50;33.50;;;;;;;;5087303;28;45407;-69
2021/12/15 02:16:11;;;;;;;;;46.50;38.25;;;;;;;;5087819;28;45441;-68
2021/12/15 02:18:41;;;;;;;;;42.50;34.50;;;;;;;;5088219;28;45414;-68
2021/12/15 02:21:13;;;;;;;;;43.50;37.25;;;;;;;;5087182;28;46663;-69
2021/12/15 02:23:43;;;;;;;;;38.00;35.00;;;;;;;;5090757;28;45342;-68
2021/12/15 02:26:15;;;;;;;;;47.75;37.50;;;;;;;;5091511;28;45146;-68
2021/12/15 02:28:41;;;;;;;;;42.25;34.75;;;;;;;;5087770;28;45275;-69
2021/12/15 02:31:15;;;;;;;;;42.00;36.25;;;;;;;;5067931;28;48084;-68
2021/12/15 02:33:59;;;;;;;;;38.50;34.50;;;;;;;;5085673;28;45281;-69
2021/12/15 02:39:10;;;;;;;;;48.00;35.75;;;;;;;;5088305;28;45330;-68
2021/12/15 02:41:37;;;;;;;;;43.25;35.75;;;;;;;;5066395;28;47151;-67
2021/12/15 02:44:05;;;;;;;;;42.75;35.25;;;;;;;;5078965;28;45387;-68
2021/12/15 02:46:32;;;;;;;;;45.25;37.25;;;;;;;;5060679;28;45413;-68
2021/12/15 02:48:57;;;;;;;;;45.75;38.75;;;;;;;;5075757;27;45429;-68
2021/12/15 02:51:23;;;;;;;;;44.75;34.25;;;;;;;;5079046;27;46145;-68
2021/12/15 02:53:49;;;;;;;;;45.25;37.25;;;;;;;;5075564;28;45588;-68
2021/12/15 02:56:14;;;;;;;;;42.00;36.00;;;;;;;;5076718;27;45315;-69
2021/12/15 02:58:48;;;;;;;;;39.50;33.00;;;;;;;;5075703;28;45349;-68
2021/12/15 03:01:20;;;;;;;;;41.00;33.50;;;;;;;;5075705;28;47582;-68
2021/12/15 03:06:39;;;;;;;;;39.00;33.00;;;;;;;;5075863;27;45356;-68
2021/12/15 03:15:20;;;;;;;;;37.25;34.00;;;;;;;;5062873;28;45518;-69
2021/12/15 03:17:20;;;;;;;;;37.50;32.00;;;;;;;;5060578;28;45348;-68
2021/12/15 03:19:45;;;;;;;;;43.00;33.50;;;;;;;;5075499;28;47118;-68
2021/12/15 03:22:10;;;;;;;;;38.50;32.75;;;;;;;;5076539;27;46650;-68
2021/12/15 03:24:35;;;;;;;;;40.00;35.00;;;;;;;;5075306;28;45306;-68
2021/12/15 03:27:09;;;;;;;;;31.00;25.75;;;;;;;;5074704;28;45256;-68
2021/12/15 03:35:16;;;;;;;;;28.50;27.00;;;;;;;;5074612;28;45865;-67
2021/12/15 03:37:43;;;;;;;;;33.75;29.00;;;;;;;;5071647;28;45320;-68
2021/12/15 03:40:16;;;;;;;;;30.25;29.25;;;;;;;;5075069;28;45636;-68
2021/12/15 03:42:43;;;;;;;;;32.75;29.50;;;;;;;;5073680;28;45277;-69
2021/12/15 03:45:13;;;;;;;;;33.75;32.00;;;;;;;;5074336;28;45390;-68
2021/12/15 03:47:40;;;;;;;;;30.75;27.75;;;;;;;;5074879;27;45221;-69
2021/12/15 03:50:08;;;;;;;;;27.25;25.50;;;;;;;;5074234;28;47162;-68
2021/12/15 03:52:33;;;;;;;;;30.75;26.75;;;;;;;;5074748;28;46856;-68
2021/12/15 03:54:58;;;;;;;;;28.25;28.00;;;;;;;;5074162;28;45459;-68
2021/12/15 03:57:24;;;;;;;;;31.25;27.25;;;;;;;;5073820;28;45414;-68
2021/12/15 03:59:49;;;;;;;;;35.50;32.00;;;;;;;;5076585;27;45466;-68
2021/12/15 04:02:16;;;;;;;;;31.25;28.00;;;;;;;;5074403;27;46485;-68
2021/12/15 04:04:42;;;;;;;;;34.00;29.00;;;;;;;;5075245;28;45352;-68
2021/12/15 04:07:08;;;;;;;;;33.50;31.25;;;;;;;;5074674;28;45611;-68
2021/12/15 04:09:33;;;;;;;;;34.75;28.50;;;;;;;;5074487;28;45235;-69
2021/12/15 04:12:00;;;;;;;;;29.00;25.50;;;;;;;;5074144;28;46635;-69
2021/12/15 04:14:31;;;;;;;;;33.75;27.00;;;;;;;;5074099;28;45314;-69
2021/12/15 04:17:02;;;;;;;;;31.25;25.00;;;;;;;;5073328;27;45351;-69
2021/12/15 04:19:28;;;;;;;;;31.50;28.75;;;;;;;;5072982;28;45533;-69
2021/12/15 04:21:54;;;;;;;;;28.50;26.25;;;;;;;;5073867;28;46211;-68
2021/12/15 04:24:19;;;;;;;;;28.75;25.00;;;;;;;;5073905;28;45431;-69
2021/12/15 04:26:46;;;;;;;;;25.75;24.75;;;;;;;;5073064;28;45498;-69
2021/12/15 04:29:11;;;;;;;;;24.50;22.00;;;;;;;;5057613;28;45409;-67
2021/12/15 04:31:38;;;;;;;;;28.00;24.50;;;;;;;;5074001;27;46622;-68
2021/12/15 04:34:05;;;;;;;;;27.75;24.50;;;;;;;;5073630;28;45533;-68
2021/12/15 04:36:32;;;;;;;;;22.25;19.25;;;;;;;;5073584;28;45413;-68
2021/12/15 04:38:57;;;;;;;;;34.75;30.00;;;;;;;;5073676;28;45509;-68
2021/12/15 04:41:23;;;;;;;;;29.00;24.50;;;;;;;;5073278;28;46100;-69
2021/12/15 04:43:56;;;;;;;;;23.00;21.75;;;;;;;;5074074;28;45427;-69
2021/12/15 04:46:23;;;;;;;;;22.25;21.00;;;;;;;;5075807;27;45407;-68
2021/12/15 04:48:49;;;;;;;;;23.50;21.50;;;;;;;;5079820;27;45509;-68
2021/12/15 04:51:14;;;;;;;;;24.25;21.25;;;;;;;;5084144;27;45403;-68
2021/12/15 04:53:39;;;;;;;;;29.00;20.25;;;;;;;;5076990;28;45429;-69
2021/12/15 04:56:05;;;;;;;;;24.00;18.50;;;;;;;;5077117;28;45408;-70
2021/12/15 04:58:31;;;;;;;;;27.75;24.50;;;;;;;;5077842;28;45264;-69
2021/12/15 05:00:58;;;;;;;;;24.25;22.25;;;;;;;;5077556;28;45395;-70
2021/12/15 05:03:24;;;;;;;;;21.00;20.25;;;;;;;;5081140;27;46743;-70
2021/12/15 05:05:49;;;;;;;;;26.25;22.50;;;;;;;;5079133;27;45752;-69
2021/12/15 05:08:15;;;;;;;;;21.50;21.50;;;;;;;;5076915;28;45373;-70
2021/12/15 05:10:40;;;;;;;;;23.00;21.50;;;;;;;;5076501;28;47062;-69
2021/12/15 05:13:05;;;;;;;;;18.25;17.75;;;;;;;;5076659;28;45418;-69
2021/12/15 05:15:31;;;;;;;;;26.25;25.00;;;;;;;;5076515;28;45445;-69
2021/12/15 05:17:56;;;;;;;;;21.00;19.50;;;;;;;;5076068;27;45570;-69
2021/12/15 05:20:23;;;;;;;;;23.50;21.75;;;;;;;;5075912;28;45496;-69
2021/12/15 05:22:48;;;;;;;;;24.00;21.75;;;;;;;;5076228;28;45449;-69
2021/12/15 05:25:13;;;;;;;;;26.50;21.50;;;;;;;;5076935;28;45321;-68
2021/12/15 05:27:39;;;;;;;;;20.50;20.00;;;;;;;;5076523;28;45321;-69
2021/12/15 05:30:07;;;;;;;;;29.00;28.75;;;;;;;;5076133;28;47167;-69
2021/12/15 05:32:32;;;;;;;;;16.25;15.00;;;;;;;;5075393;28;45275;-69
2021/12/15 05:34:59;;;;;;;;;19.75;17.25;;;;;;;;5074702;27;45576;-70
2021/12/15 05:37:25;;;;;;;;;27.00;20.50;;;;;;;;5076443;28;45532;-67
2021/12/15 05:39:51;;;;;;;;;27.75;19.50;;;;;;;;5075551;28;45579;-69
2021/12/15 05:42:18;;;;;;;;;22.50;17.75;;;;;;;;5074873;28;45249;-68
2021/12/15 05:44:44;;;;;;;;;24.00;22.75;;;;;;;;5075439;28;45520;-69
2021/12/15 05:47:09;;;;;;;;;20.00;17.25;;;;;;;;5075226;27;45395;-68
2021/12/15 05:49:35;;;;;;;;;24.50;18.25;;;;;;;;5075963;28;46192;-68
2021/12/15 05:52:00;;;;;;;;;25.00;22.00;;;;;;;;5074381;28;45273;-69
2021/12/15 05:54:26;;;;;;;;;24.25;22.25;;;;;;;;5075304;28;45430;-69
2021/12/15 05:56:51;;;;;;;;;22.50;19.50;;;;;;;;5074894;28;45446;-69
2021/12/15 05:59:17;;;;;;;;;20.75;19.25;;;;;;;;5075135;28;46236;-69
2021/12/15 06:01:43;;;;;;;;;25.75;22.25;;;;;;;;5075717;28;45386;-68
2021/12/15 06:04:09;;;;;;;;;21.00;16.50;;;;;;;;5077699;27;45449;-68
2021/12/15 06:06:34;;;;;;;;;21.00;21.00;;;;;;;;5085375;27;45549;-69
2021/12/15 06:09:00;;;;;;;;;22.50;18.00;;;;;;;;5074580;28;46176;-70
2021/12/15 06:11:26;;;;;;;;;20.25;19.00;;;;;;;;5075619;28;45283;-68
2021/12/15 06:13:53;;;;;;;;;22.75;19.75;;;;;;;;5075362;28;45414;-69
2021/12/15 06:16:18;;;;;;;;;24.50;24.50;;;;;;;;5075171;28;45448;-69
2021/12/15 06:18:47;;;;;;;;;16.00;13.75;;;;;;;;5079423;27;47005;-69
2021/12/15 06:21:17;;;;;;;;;26.25;23.25;;;;;;;;5092372;27;45558;-70
2021/12/15 06:23:43;;;;;;;;;17.50;16.00;;;;;;;;5088447;28;45260;-69
2021/12/15 06:26:08;;;;;;;;;20.75;19.00;;;;;;;;5068364;28;45008;-70
2021/12/15 06:28:35;;;;;;;;;22.50;19.25;;;;;;;;5086477;28;46351;-68
2021/12/15 06:31:00;;;;;;;;;18.25;17.25;;;;;;;;5059988;28;45395;-69
2021/12/15 06:33:27;;;;;;;;;23.50;20.00;;;;;;;;5073746;28;45489;-70
2021/12/15 06:35:53;;;;;;;;;18.00;17.25;;;;;;;;5078541;27;45399;-70
2021/12/15 06:38:29;;;;;;;;;22.25;20.00;;;;;;;;5074195;28;46392;-70
2021/12/15 06:40:57;;;;;;;;;19.25;17.75;;;;;;;;5077292;28;45626;-69
2021/12/15 06:43:23;;;;;;;;;22.75;19.25;;;;;;;;5079394;28;45412;-68
2021/12/15 06:59:12;;;;;;;;;24.00;20.50;;;;;;;;5057932;28;45484;-71
2021/12/15 07:01:37;;;;;;;;;21.75;18.00;;;;;;;;5074124;28;45577;-69
2021/12/15 07:04:02;;;;;;;;;22.25;21.25;;;;;;;;5073093;28;45620;-70
2021/12/15 07:06:28;;;;;;;;;23.50;17.75;;;;;;;;5072194;27;45482;-70
2021/12/15 07:08:53;;;;;;;;;23.50;20.75;;;;;;;;5073377;27;45509;-69
2021/12/15 07:11:19;;;;;;;;;23.00;21.75;;;;;;;;5073758;27;45524;-69
2021/12/15 07:13:44;;;;;;;;;23.00;19.00;;;;;;;;5074122;28;45322;-70
2021/12/15 07:16:10;;;;;;;;;19.00;17.50;;;;;;;;5073662;28;45442;-70
2021/12/15 07:18:42;;;;;;;;;20.75;18.00;;;;;;;;5074098;28;45720;-69
2021/12/15 07:21:10;;;;;;;;;20.75;20.00;;;;;;;;5075037;27;45581;-70
2021/12/15 07:23:36;;;;;;;;;25.50;22.00;;;;;;;;5075011;28;45424;-69
2021/12/15 07:26:02;;;;;;;;;19.25;18.25;;;;;;;;5077708;27;45500;-70
2021/12/15 07:28:28;;;;;;;;;15.25;13.25;;;;;;;;5074507;27;47465;-70
2021/12/15 07:30:54;;;;;;;;;27.00;24.25;;;;;;;;5073114;27;45423;-70
2021/12/15 07:33:20;;;;;;;;;22.00;18.75;;;;;;;;5072557;28;45241;-71
2021/12/15 07:35:45;;;;;;;;;24.00;22.25;;;;;;;;5054193;28;45497;-69
2021/12/15 07:38:10;;;;;;;;;27.75;24.00;;;;;;;;5072909;28;46357;-71
2021/12/15 07:40:37;;;;;;;;;23.00;21.50;;;;;;;;5073157;28;45429;-70
2021/12/15 07:43:09;;;;;;;;;21.25;20.25;;;;;;;;5072955;28;45327;-68
2021/12/15 07:45:42;;;;;;;;;23.75;20.75;;;;;;;;5079111;27;46776;-70
2021/12/15 07:48:08;;;;;;;;;26.50;20.25;;;;;;;;5065992;27;46311;-70
2021/12/15 07:50:34;;;;;;;;;28.00;21.50;;;;;;;;5073243;27;49818;-72
2021/12/15 07:53:00;;;;;;;;;20.25;18.75;;;;;;;;5072438;28;45637;-70
2021/12/15 07:55:25;;;;;;;;;21.75;18.00;;;;;;;;5073373;28;45391;-71
2021/12/15 07:57:51;;;;;;;;;25.00;21.75;;;;;;;;5073844;27;45828;-68
2021/12/15 08:00:20;;;;;;;;;25.25;17.25;;;;;;;;5071368;28;45453;-69
2021/12/15 08:02:45;;;;;;;;;21.50;19.00;;;;;;;;5071929;28;45429;-68
2021/12/15 08:05:10;;;;;;;;;25.75;20.25;;;;;;;;5072563;28;47563;-68
2021/12/15 08:07:36;;;;;;;;;16.00;15.75;;;;;;;;5070914;27;46085;-70
2021/12/15 08:10:03;;;;;;;;;23.75;21.00;;;;;;;;5070478;27;45511;-72
2021/12/15 08:12:29;;;;;;;;;28.50;25.25;;;;;;;;5070998;27;45427;-81
2021/12/15 08:14:54;;;;;;;;;27.00;24.50;;;;;;;;5075121;27;45382;-81
2021/12/15 08:17:20;;;;;;;;;24.25;20.75;;;;;;;;5074578;27;47423;-82
2021/12/15 08:19:45;;;;;;;;;21.50;20.50;;;;;;;;5077034;27;45412;-82
2021/12/15 08:22:10;;;;;;;;;30.75;28.00;;;;;;;;5077803;27;45408;-81
2021/12/15 08:24:35;;;;;;;;;29.75;27.00;;;;;;;;5077312;28;45347;-80
2021/12/15 08:27:01;;;;;;;;;23.50;17.75;;;;;;;;5078730;28;46322;-81
2021/12/15 08:29:28;;;;;;;;;22.75;21.50;;;;;;;;5084009;27;45245;-81
2021/12/15 08:31:53;;;;;;;;;23.50;18.50;;;;;;;;5079035;27;46269;-81
2021/12/15 08:34:18;;;;;;;;;18.25;18.00;;;;;;;;5080040;27;45485;-82
2021/12/15 08:36:46;;;;;;;;;19.25;18.50;;;;;;;;5080050;27;46985;-79
2021/12/15 08:39:12;;;;;;;;;23.75;21.75;;;;;;;;5078562;27;45467;-81
2021/12/15 08:41:37;;;;;;;;;23.75;22.00;;;;;;;;5078163;27;45319;-81
2021/12/15 08:44:06;;;;;;;;;25.00;22.50;;;;;;;;5094321;27;45262;-80
2021/12/15 08:46:33;;;;;;;;;15.25;15.00;;;;;;;;5097514;28;45555;-81
2021/12/15 08:48:59;;;;;;;;;24.25;21.25;;;;;;;;5095324;27;45458;-80
2021/12/15 08:51:26;;;;;;;;;25.25;21.00;;;;;;;;5086900;27;45419;-81
2021/12/15 08:54:03;;;;;;;;;26.50;20.00;;;;;;;;5095367;27;45436;-81
2021/12/15 08:56:28;;;;;;;;;25.00;21.25;;;;;;;;5089058;27;45454;-82
2021/12/15 08:58:54;;;;;;;;;22.25;19.25;;;;;;;;5080378;27;46011;-81
2021/12/15 09:01:19;;;;;;;;;29.75;24.50;;;;;;;;5081949;27;45450;-82
2021/12/15 09:03:45;;;;;;;;;26.00;25.00;;;;;;;;5081035;27;45269;-82
2021/12/15 09:06:11;;;;;;;;;25.75;21.00;;;;;;;;5059008;28;46825;-81
2021/12/15 09:08:38;;;;;;;;;26.00;25.50;;;;;;;;5077921;28;45487;-80
2021/12/15 09:11:06;;;;;;;;;33.25;29.00;;;;;;;;5081214;27;45512;-82
2021/12/15 09:13:32;;;;;;;;;26.25;22.50;;;;;;;;5078061;28;45402;-80
2021/12/15 09:16:02;;;;;;;;;26.00;23.00;;;;;;;;5059514;28;46431;-81
2021/12/15 09:18:28;;;;;;;;;24.50;23.50;;;;;;;;5060070;28;45839;-81
2021/12/15 09:20:53;;;;;;;;;23.00;22.75;;;;;;;;5078470;27;45779;-81
2021/12/15 09:23:18;;;;;;;;;32.25;27.50;;;;;;;;5078510;28;45372;-81
2021/12/15 09:25:44;;;;;;;;;33.00;26.75;;;;;;;;5078240;28;45366;-80
2021/12/15 09:28:10;;;;;;;;;35.25;25.75;;;;;;;;5079278;27;45432;-81
2021/12/15 09:30:43;;;;;;;;;28.25;25.75;;;;;;;;5078686;27;45565;-81
2021/12/15 09:33:08;;;;;;;;;24.25;19.00;;;;;;;;5083150;27;45565;-81
2021/12/15 09:35:34;;;;;;;;;28.00;24.50;;;;;;;;5074703;28;45506;-81
2021/12/15 09:37:59;;;;;;;;;26.75;24.25;;;;;;;;5079480;27;45533;-81
2021/12/15 09:40:24;;;;;;;;;29.50;25.25;;;;;;;;5075254;28;45561;-80
2021/12/15 09:42:50;;;;;;;;;28.25;25.50;;;;;;;;5076471;27;45501;-82
2021/12/15 09:45:50;;;;;;;;;28.00;22.75;;;;;;;;5080256;27;46122;-81
2021/12/15 10:04:45;;;;;;;;;27.75;24.00;;;;;;;;5080614;27;45666;-81
2021/12/15 10:20:56;;;;;;;;;19.00;19.00;;;;;;;;5083530;27;45450;-81
2021/12/15 10:23:25;;;;;;;;;24.75;22.50;;;;;;;;5073140;28;45418;-82
2021/12/15 10:25:54;;;;;;;;;18.00;17.25;;;;;;;;5074818;27;45498;-81
2021/12/15 10:28:21;;;;;;;;;22.75;20.00;;;;;;;;5074238;27;46167;-82
2021/12/15 10:30:52;;;;;;;;;22.50;21.00;;;;;;;;5077973;27;45398;-83
2021/12/15 10:33:21;;;;;;;;;21.00;21.00;;;;;;;;5092844;27;45464;-80
2021/12/15 10:35:46;;;;;;;;;21.00;19.75;;;;;;;;5084354;27;45341;-81
2021/12/15 10:38:18;;;;;;;;;17.00;14.20;;;;;;;;5095789;28;45367;-81
2021/12/15 10:40:50;;;;;;;;;29.25;23.75;;;;;;;;5092962;28;45315;-81
2021/12/15 10:43:15;;;;;;;;;20.50;20.50;;;;;;;;5082689;28;45375;-79
2021/12/15 10:45:52;;;;;;;;;22.75;18.00;;;;;;;;5056971;28;45416;-81
2021/12/15 10:48:25;;;;;;;;;18.75;17.50;;;;;;;;5065435;28;46089;-81
2021/12/15 10:50:50;;;;;;;;;13.50;13.50;;;;;;;;5073355;28;45316;-81
2021/12/15 10:53:28;;;;;;;;;32.50;31.25;;;;;;;;5079706;28;45437;-79
2021/12/15 10:55:53;;;;;;;;;18.25;17.75;;;;;;;;5073848;27;45330;-81
2021/12/15 10:58:36;;;;;;;;;15.25;13.25;;;;;;;;5079486;27;46461;-80
2021/12/15 11:01:04;;;;;;;;;18.00;16.75;;;;;;;;5071827;27;45478;-80
2021/12/15 11:03:37;;;;;;;;;16.25;12.50;;;;;;;;5078030;27;45474;-80
2021/12/15 11:06:19;;;;;;;;;19.25;18.00;;;;;;;;5079791;27;45488;-81
2021/12/15 11:08:44;;;;;;;;;24.00;21.00;;;;;;;;5073425;28;46271;-80
2021/12/15 11:11:21;;;;;;;;;19.50;16.50;;;;;;;;5073552;28;45481;-80
2021/12/15 11:13:47;;;;;;;;;26.00;23.25;;;;;;;;5078212;27;45451;-81
2021/12/15 11:16:13;;;;;;;;;19.25;18.25;;;;;;;;5074973;27;45488;-82
2021/12/15 11:18:38;;;;;;;;;23.50;19.00;;;;;;;;5074858;27;45595;-81
2021/12/15 11:21:08;;;;;;;;;21.00;19.75;;;;;;;;5072569;28;45439;-81
2021/12/15 11:23:33;;;;;;;;;22.75;17.75;;;;;;;;5071816;27;45748;-82
2021/12/15 11:26:00;;;;;;;;;18.25;17.00;;;;;;;;5073441;27;45721;-80
2021/12/15 11:28:30;;;;;;;;;26.25;20.75;;;;;;;;5072559;27;46335;-81
2021/12/15 11:30:57;;;;;;;;;19.50;17.25;;;;;;;;5072449;27;45665;-82
2021/12/15 11:33:25;;;;;;;;;20.50;18.25;;;;;;;;5073117;27;45644;-82
2021/12/15 11:35:56;;;;;;;;;21.50;19.25;;;;;;;;5072673;27;45434;-82
2021/12/15 11:38:23;;;;;;;;;27.75;26.00;;;;;;;;5052965;27;46348;-83
2021/12/15 11:40:51;;;;;;;;;18.75;14.50;;;;;;;;5073617;28;45323;-84
2021/12/15 11:43:26;;;;;;;;;21.50;19.00;;;;;;;;5071953;27;45416;-83
2021/12/15 11:45:51;;;;;;;;;28.25;21.25;;;;;;;;5079115;27;45489;-83
2021/12/15 11:48:22;;;;;;;;;18.25;18.00;;;;;;;;5066204;27;46313;-82
2021/12/15 11:50:48;;;;;;;;;48.25;37.50;;;;;;;;5068944;27;45531;-84
2021/12/15 11:53:32;;;;;;;;;20.50;20.50;;;;;;;;5058993;28;45426;-83
2021/12/15 11:56:19;;;;;;;;;34.50;31.50;;;;;;;;5073320;27;45373;-82
2021/12/15 11:58:44;;;;;;;;;24.25;21.25;;;;;;;;5074042;28;47317;-82
2021/12/15 12:01:10;;;;;;;;;27.00;24.25;;;;;;;;5076968;28;45418;-82
2021/12/15 12:03:36;;;;;;;;;41.75;36.75;;;;;;;;5085811;28;45429;-83
2021/12/15 12:06:02;;;;;;;;;45.75;34.75;;;;;;;;5086296;27;45346;-86
2021/12/15 12:08:28;;;;;;;;;20.50;14.25;;;;;;;;5096644;27;45958;-85
2021/12/15 12:11:06;;;;;;;;;18.25;18.25;;;;;;;;5098407;27;45292;-86
2021/12/15 12:13:38;;;;;;;;;19.25;14.25;;;;;;;;5094717;28;45406;-82
2021/12/15 12:16:07;;;;;;;;;17.00;16.50;;;;;;;;5090253;28;45434;-83
2021/12/15 12:18:32;;;;;;;;;15.25;14.75;;;;;;;;5090626;28;45510;-83
2021/12/15 12:21:03;;;;;;;;;15.00;15.00;;;;;;;;5096739;27;49383;-83
2021/12/15 12:23:31;;;;;;;;;16.25;16.25;;;;;;;;5095133;27;45386;-83
2021/12/15 12:25:58;;;;;;;;;21.25;17.25;;;;;;;;5076823;28;45429;-84
2021/12/15 12:31:15;;;;;;;;;11.00;10.50;;;;;;;;5239680;22;46233;-83
2021/12/15 12:33:40;;;;;;;;;16.50;13.50;;;;;;;;5106060;27;44771;-81
2021/12/15 12:36:13;;;;;;;;;13.75;13.75;;;;;;;;5076231;27;45303;-81
2021/12/15 12:38:40;;;;;;;;;8.50;6.50;;;;;;;;5082233;27;45544;-82
2021/12/15 12:41:11;;;;;;;;;8.50;8.50;;;;;;;;5082713;27;45400;-82
2021/12/15 12:43:37;;;;;;;;;11.25;10.75;;;;;;;;5091063;27;45607;-80
2021/12/15 12:46:21;;;;;;;;;7.25;7.25;;;;;;;;5090506;27;45541;-84
2021/12/15 12:59:58;;;;;;;;;15.75;12.50;;;;;;;;5023633;28;45322;-81
2021/12/15 13:02:37;;;;;;;;;10.50;10.50;;;;;;;;5029758;28;45499;-81
2021/12/15 13:05:03;;;;;;;;;11.00;10.25;;;;;;;;5022433;28;45537;-79
2021/12/15 13:07:49;;;;;;;;;11.25;10.00;;;;;;;;5013129;28;45594;-84
2021/12/15 13:10:16;;;;;;;;;23.00;17.75;;;;;;;;5014092;28;46603;-82
2021/12/15 13:12:47;;;;;;;;;17.50;13.50;;;;;;;;5015716;28;45526;-82
2021/12/15 13:15:16;;;;;;;;;18.75;16.50;;;;;;;;5004823;28;45371;-82
2021/12/15 13:17:58;;;;;;;;;15.00;11.75;;;;;;;;5002967;28;45419;-81
2021/12/15 13:20:24;;;;;;;;;19.75;14.00;;;;;;;;5016243;28;45619;-82
2021/12/15 13:23:06;;;;;;;;;16.75;14.00;;;;;;;;5013491;28;46264;-81
2021/12/15 13:28:46;;;;;;;;;16.75;14.50;;;;;;;;5011135;28;45453;-81
2021/12/15 13:31:20;;;;;;;;;18.50;15.00;;;;;;;;5056297;27;46223;-82
2021/12/15 13:33:48;;;;;;;;;19.00;16.25;;;;;;;;5082578;27;45543;-82
2021/12/15 13:36:13;;;;;;;;;17.50;14.25;;;;;;;;5086025;27;45494;-82
2021/12/15 13:38:53;;;;;;;;;15.50;12.25;;;;;;;;5082123;27;45608;-82
2021/12/15 13:41:38;;;;;;;;;22.50;22.50;;;;;;;;5072398;27;46117;-82
2021/12/15 13:44:24;;;;;;;;;8.75;8.00;;;;;;;;5074589;27;45497;-82
2021/12/15 13:46:57;;;;;;;;;19.50;17.00;;;;;;;;5075149;27;45299;-81
2021/12/15 13:49:23;;;;;;;;;13.00;10.50;;;;;;;;5077051;27;45500;-83
2021/12/15 13:52:05;;;;;;;;;18.75;15.50;;;;;;;;5081364;27;46046;-82
2021/12/15 13:54:50;;;;;;;;;14.00;13.00;;;;;;;;5078012;27;45358;-82
2021/12/15 13:57:18;;;;;;;;;18.25;18.25;;;;;;;;5080978;27;45462;-81
2021/12/15 13:59:47;;;;;;;;;12.50;12.50;;;;;;;;5061800;28;45437;-82
2021/12/15 14:02:14;;;;;;;;;14.25;9.75;;;;;;;;5078239;27;45568;-82
2021/12/15 14:04:40;;;;;;;;;11.50;11.50;;;;;;;;5060632;27;45532;-81
2021/12/15 14:07:25;;;;;;;;;13.75;10.75;;;;;;;;5078211;27;45431;-82
2021/12/15 14:09:50;;;;;;;;;11.50;9.00;;;;;;;;5077905;27;45441;-81
2021/12/15 14:12:15;;;;;;;;;10.00;9.75;;;;;;;;5079060;27;45504;-82
2021/12/15 14:14:44;;;;;;;;;12.00;10.75;;;;;;;;5079610;27;45433;-82
2021/12/15 14:17:10;;;;;;;;;7.50;6.25;;;;;;;;5083615;27;45277;-82
2021/12/15 14:19:36;;;;;;;;;9.00;6.75;;;;;;;;5090000;27;45423;-81
2021/12/15 14:22:06;;;;;;;;;4.00;4.00;;;;;;;;5109264;27;46357;-82
2021/12/15 14:24:32;;;;;;;;;7.25;5.25;;;;;;;;5106580;27;45276;-83
2021/12/15 14:26:57;;;;;;;;;7.00;6.25;;;;;;;;5095875;27;44842;-81
2021/12/15 14:29:24;;;;;;;;;8.00;7.00;;;;;;;;5095413;27;45515;-82
2021/12/15 14:31:52;;;;;;;;;9.50;7.75;;;;;;;;5082844;27;46185;-82
2021/12/15 14:34:19;;;;;;;;;7.00;6.75;;;;;;;;5088976;27;45323;-81
2021/12/15 14:36:46;;;;;;;;;9.75;9.75;;;;;;;;5083411;27;45539;-81
2021/12/15 14:39:16;;;;;;;;;11.25;9.75;;;;;;;;5091329;27;45452;-82
2021/12/15 14:41:43;;;;;;;;;9.00;9.00;;;;;;;;5078439;27;45647;-81
2021/12/15 14:44:11;;;;;;;;;10.00;9.50;;;;;;;;5086527;27;45344;-82
2021/12/15 14:46:41;;;;;;;;;11.00;8.25;;;;;;;;5079871;27;45348;-82
2021/12/15 14:49:09;;;;;;;;;11.00;8.75;;;;;;;;5081719;27;49591;-82
2021/12/15 14:51:35;;;;;;;;;21.00;19.00;;;;;;;;5079467;27;46346;-82
2021/12/15 14:54:01;;;;;;;;;18.75;15.75;;;;;;;;5087295;27;45556;-82
2021/12/15 14:56:41;;;;;;;;;7.00;7.00;;;;;;;;5074175;27;45532;-82
2021/12/15 14:59:06;;;;;;;;;19.75;15.00;;;;;;;;5079989;27;45612;-82
2021/12/15 15:01:32;;;;;;;;;12.75;9.75;;;;;;;;5077105;27;45529;-81
2021/12/15 15:04:01;;;;;;;;;9.75;9.75;;;;;;;;5075130;27;45526;-82
2021/12/15 15:06:27;;;;;;;;;8.00;7.75;;;;;;;;5057678;28;45600;-80
2021/12/15 15:08:54;;;;;;;;;10.50;8.75;;;;;;;;5080167;27;45551;-79
2021/12/15 15:11:21;;;;;;;;;8.75;8.75;;;;;;;;5080766;27;46025;-80
2021/12/15 15:13:51;;;;;;;;;32.75;29.50;;;;;;;;5077908;28;45320;-80
2021/12/15 15:16:21;;;;;;;;;19.25;14.75;;;;;;;;5078568;27;45771;-82
2021/12/15 15:18:47;;;;;;;;;10.75;10.00;;;;;;;;5078254;27;45253;-81
2021/12/15 15:21:13;;;;;;;;;11.25;11.25;;;;;;;;5076936;27;46017;-82
2021/12/15 15:23:43;;;;;;;;;12.00;11.00;;;;;;;;5078046;27;45339;-82
2021/12/15 15:26:10;;;;;;;;;15.00;15.00;;;;;;;;5076001;27;45553;-82
2021/12/15 15:28:38;;;;;;;;;12.50;12.00;;;;;;;;5073860;27;45878;-82
2021/12/15 15:31:06;;;;;;;;;13.75;12.00;;;;;;;;5075839;27;46477;-83
2021/12/15 15:33:34;;;;;;;;;12.75;9.00;;;;;;;;5073316;27;45410;-83
2021/12/15 15:36:17;;;;;;;;;13.25;10.75;;;;;;;;5075019;27;45513;-83
2021/12/15 15:38:45;;;;;;;;;26.25;23.00;;;;;;;;5079464;27;45468;-82
2021/12/15 15:41:14;;;;;;;;;40.25;34.50;;;;;;;;5078411;27;45287;-81
2021/12/15 15:43:44;;;;;;;;;16.75;14.75;;;;;;;;5077783;28;45523;-82
2021/12/15 15:46:18;;;;;;;;;16.00;15.00;;;;;;;;5080376;27;45537;-83
2021/12/15 15:48:43;;;;;;;;;14.00;12.75;;;;;;;;5084057;27;45467;-81
2021/12/15 15:51:19;;;;;;;;;9.75;9.75;;;;;;;;5075663;27;45790;-81